Time;durP1;ratioP1;P1;durP2;ratioP2;P2;SDS_P1;SDS_P2;PMS_P1;PMS_P2;Temp;Humidity;BMP_temperature;BMP_pressure;BME280_temperature;BME280_humidity;BME280_pressure;Samples;Min_cycle;Max_cycle;Signal;HPM_P1;HPM_P2
2021/04/17 11:32:32;;;;;;;8.93;7.70;;;10.60;90.70;;;;;;6299451;28;20737;-75
2021/04/17 11:35:34;;;;;;;8.87;7.90;;;10.30;91.00;;;;;;6288974;28;20298;-76
2021/04/17 11:38:36;;;;;;;12.07;8.33;;;10.20;91.20;;;;;;6279880;28;20268;-76
2021/04/17 11:41:38;;;;;;;11.07;8.67;;;10.20;91.80;;;;;;6301914;28;20221;-76
2021/04/17 11:44:40;;;;;;;10.97;8.77;;;10.20;91.60;;;;;;6301749;28;20574;-76
2021/04/17 11:47:42;;;;;;;11.53;8.40;;;10.20;91.80;;;;;;6279615;28;20327;-75
2021/04/17 11:50:44;;;;;;;11.67;9.00;;;10.30;91.50;;;;;;6301833;28;20210;-76
2021/04/17 11:53:47;;;;;;;8.77;7.87;;;10.20;90.60;;;;;;6291052;28;20792;-76
2021/04/17 11:56:48;;;;;;;10.63;9.10;;;10.20;91.00;;;;;;6287517;28;20203;-76
2021/04/17 12:00:17;;;;;;;9.87;8.80;;;10.30;91.50;;;;;;6309385;28;20766;-76
2021/04/17 12:03:22;;;;;;;10.17;8.00;;;10.30;91.60;;;;;;6284868;28;20303;-76
2021/04/17 13:12:43;;;;;;;9.13;7.83;;;10.60;85.40;;;;;;6455635;22;20233;-70
2021/04/17 13:15:46;;;;;;;9.10;7.73;;;10.40;85.60;;;;;;6289246;28;20270;-71
2021/04/17 13:18:48;;;;;;;10.33;7.77;;;10.30;86.30;;;;;;6300137;28;20747;-71
2021/04/17 13:21:49;;;;;;;8.77;7.83;;;10.20;87.60;;;;;;6282493;28;20240;-71
2021/04/17 13:24:52;;;;;;;9.73;8.10;;;10.20;88.20;;;;;;6299497;28;20591;-71
2021/04/17 13:28:35;;;;;;;8.50;7.60;;;10.10;87.80;;;;;;6280296;28;20240;-71
2021/04/17 13:31:38;;;;;;;8.47;7.67;;;10.00;87.90;;;;;;6295835;28;20265;-71
2021/04/17 13:34:41;;;;;;;8.53;7.10;;;10.00;88.50;;;;;;6293760;28;20244;-71
2021/04/17 13:37:43;;;;;;;10.00;8.23;;;10.00;88.80;;;;;;6295702;28;20251;-71
2021/04/17 13:40:45;;;;;;;11.13;8.37;;;10.00;89.20;;;;;;6269703;28;20239;-72
2021/04/17 13:43:46;;;;;;;9.90;7.40;;;9.90;89.00;;;;;;6596627;22;20244;-76
2021/04/17 13:46:48;;;;;;;9.20;8.17;;;9.80;89.90;;;;;;6325722;28;20201;-76
2021/04/17 13:49:50;;;;;;;12.03;7.77;;;9.70;90.10;;;;;;6330246;28;20342;-76
2021/04/17 14:06:36;;;;;;;12.53;8.40;;;9.30;91.50;;;;;;6328566;28;20261;-76
2021/04/17 14:09:38;;;;;;;9.43;8.50;;;9.20;91.80;;;;;;6340898;28;20496;-76
2021/04/17 14:12:40;;;;;;;11.47;8.10;;;9.10;92.00;;;;;;6340077;28;20306;-76
2021/04/17 14:56:13;;;;;;;10.63;9.43;;;8.50;95.60;;;;;;6285078;28;20238;-76
2021/04/17 14:59:33;;;;;;;10.37;8.70;;;8.40;95.70;;;;;;6285271;28;20729;-76
2021/04/17 15:02:35;;;;;;;10.27;8.83;;;8.40;96.20;;;;;;6292029;28;20544;-76
2021/04/17 15:05:37;;;;;;;11.27;8.60;;;8.40;96.20;;;;;;6290776;28;20191;-76
2021/04/17 15:21:35;;;;;;;9.97;8.57;;;8.30;97.10;;;;;;6269161;28;20199;-76
2021/04/17 15:24:37;;;;;;;9.80;8.50;;;8.30;97.30;;;;;;6278988;28;20207;-76
2021/04/17 15:27:39;;;;;;;11.27;8.73;;;8.30;97.50;;;;;;6263709;28;20201;-76
2021/04/17 15:30:41;;;;;;;9.83;8.83;;;8.30;97.80;;;;;;6279407;28;20227;-76
2021/04/17 15:33:43;;;;;;;11.40;9.40;;;8.30;97.90;;;;;;6297605;28;20206;-76
2021/04/17 15:41:51;;;;;;;10.97;9.07;;;8.20;98.20;;;;;;6289352;28;20184;-76
2021/04/17 15:44:56;;;;;;;12.43;9.23;;;8.20;98.50;;;;;;6297772;28;20218;-76
2021/04/17 15:52:59;;;;;;;12.53;9.97;;;8.20;98.90;;;;;;6286355;28;20188;-76
2021/04/17 15:56:03;;;;;;;11.67;9.83;;;8.20;99.00;;;;;;6279830;28;20383;-75
2021/04/17 16:26:07;;;;;;;12.10;10.13;;;7.90;99.90;;;;;;6304010;28;20606;-75
2021/04/17 16:29:13;;;;;;;10.83;9.60;;;7.90;99.90;;;;;;6306830;28;20750;-76
2021/04/17 16:40:29;;;;;;;10.83;9.63;;;7.90;99.90;;;;;;6237669;28;20224;-71
2021/04/17 16:43:31;;;;;;;12.77;10.33;;;7.90;99.90;;;;;;6247363;28;20687;-71
2021/04/17 16:46:33;;;;;;;11.87;10.10;;;7.90;99.90;;;;;;6251743;28;20746;-71
2021/04/17 16:49:36;;;;;;;11.83;9.10;;;7.90;99.90;;;;;;6252704;28;20236;-71
2021/04/17 16:52:38;;;;;;;12.33;9.90;;;7.80;99.90;;;;;;6239108;28;20236;-71
2021/04/17 16:56:30;;;;;;;11.83;10.63;;;7.80;99.90;;;;;;6243717;28;20644;-71
2021/04/17 17:09:31;;;;;;;9.67;8.67;;;7.70;99.90;;;;;;6244776;28;20245;-71
2021/04/17 17:12:33;;;;;;;12.20;10.37;;;7.60;99.90;;;;;;6247856;28;20322;-71
2021/04/17 17:15:36;;;;;;;10.73;9.63;;;7.60;99.90;;;;;;6230692;28;20235;-71
2021/04/17 17:29:11;;;;;;;10.90;9.70;;;7.50;99.90;;;;;;6191027;28;20360;-71
2021/04/17 17:46:04;;;;;;;9.67;8.60;;;7.20;99.90;;;;;;6247212;28;20597;-71
2021/04/17 17:49:06;;;;;;;10.27;9.00;;;7.20;99.90;;;;;;6254205;28;20262;-71
2021/04/17 17:57:02;;;;;;;11.57;9.70;;;7.20;99.90;;;;;;6277494;28;20314;-71
2021/04/17 18:04:57;;;;;;;10.13;9.03;;;7.10;99.90;;;;;;6296952;22;20326;-71
2021/04/17 18:07:59;;;;;;;9.67;8.47;;;7.00;99.90;;;;;;6297641;28;20233;-71
2021/04/17 18:11:02;;;;;;;10.53;9.43;;;7.00;99.90;;;;;;6299279;28;20234;-71
2021/04/17 18:14:04;;;;;;;8.97;8.03;;;7.00;99.90;;;;;;6299304;28;20737;-71
2021/04/17 18:22:05;;;;;;;10.53;8.97;;;6.90;99.90;;;;;;6285986;28;20234;-71
2021/04/17 18:25:09;;;;;;;10.90;8.57;;;6.90;99.90;;;;;;6291360;28;20222;-71
2021/04/17 18:28:12;;;;;;;10.27;8.83;;;6.90;99.90;;;;;;6291219;28;20234;-71
2021/04/17 18:36:07;;;;;;;10.63;9.53;;;6.90;99.90;;;;;;6287486;28;20218;-71
2021/04/17 18:40:00;;;;;;;10.93;9.80;;;6.80;99.90;;;;;;6297819;28;20240;-71
2021/04/17 18:43:02;;;;;;;11.13;9.33;;;6.80;99.90;;;;;;6276592;28;20268;-71
2021/04/17 18:46:05;;;;;;;9.73;8.43;;;6.80;99.90;;;;;;6291272;28;20244;-71
2021/04/17 18:49:07;;;;;;;10.57;8.73;;;6.80;99.90;;;;;;6289891;28;20246;-71
2021/04/17 18:52:10;;;;;;;9.43;8.47;;;6.80;99.90;;;;;;6276224;28;20701;-71
2021/04/17 18:55:14;;;;;;;10.40;9.27;;;6.80;99.90;;;;;;6275657;28;20631;-71
2021/04/17 18:58:19;;;;;;;11.20;9.33;;;6.80;99.90;;;;;;6294224;28;20258;-71
2021/04/17 19:01:22;;;;;;;13.23;10.43;;;6.70;99.90;;;;;;6301229;28;20310;-71
2021/04/17 19:04:27;;;;;;;13.83;11.60;;;6.70;99.90;;;;;;6315746;28;20629;-71
2021/04/17 19:07:30;;;;;;;14.23;11.73;;;6.70;99.90;;;;;;6305806;28;20328;-71
2021/04/17 19:10:32;;;;;;;13.83;11.93;;;6.60;99.90;;;;;;6304752;28;20306;-71
2021/04/17 19:13:36;;;;;;;14.83;12.60;;;6.60;99.90;;;;;;6304419;28;20233;-71
2021/04/17 19:16:39;;;;;;;14.27;11.27;;;6.60;99.90;;;;;;6305397;28;20371;-71
2021/04/17 19:19:42;;;;;;;17.90;14.33;;;6.50;99.90;;;;;;6286071;28;20780;-71
2021/04/17 19:22:44;;;;;;;14.57;13.03;;;6.50;99.90;;;;;;6305134;28;20298;-71
2021/04/17 19:25:47;;;;;;;16.23;14.13;;;6.50;99.90;;;;;;6305166;28;20233;-71
2021/04/17 19:28:51;;;;;;;15.53;13.73;;;6.50;99.90;;;;;;6306131;28;20234;-71
2021/04/17 19:31:53;;;;;;;18.33;14.63;;;6.40;99.90;;;;;;6303637;28;20229;-71
2021/04/17 19:34:57;;;;;;;18.33;14.57;;;6.40;99.90;;;;;;6303821;28;20380;-71
2021/04/17 19:37:59;;;;;;;18.23;14.57;;;6.30;99.90;;;;;;6304553;28;20236;-71
2021/04/17 19:41:03;;;;;;;20.07;15.20;;;6.30;99.90;;;;;;6305040;28;20240;-71
2021/04/17 19:44:05;;;;;;;19.07;14.70;;;6.20;99.90;;;;;;6305928;28;20228;-71
2021/04/17 19:47:07;;;;;;;15.43;13.40;;;6.20;99.90;;;;;;6303665;28;20233;-71
2021/04/17 19:50:13;;;;;;;15.97;13.57;;;6.20;99.90;;;;;;6304482;28;20323;-71
2021/04/17 19:53:16;;;;;;;17.87;14.07;;;6.20;99.90;;;;;;6319205;28;20236;-71
2021/04/17 19:56:18;;;;;;;14.70;12.40;;;6.20;99.90;;;;;;6329368;28;20229;-71
2021/04/17 19:59:20;;;;;;;17.73;13.33;;;6.20;99.90;;;;;;6330186;28;20244;-71
2021/04/17 20:02:23;;;;;;;17.30;14.47;;;6.20;99.90;;;;;;6329142;28;20588;-71
2021/04/17 20:05:25;;;;;;;17.20;13.83;;;6.20;99.90;;;;;;6315092;28;20331;-71
2021/04/17 20:08:28;;;;;;;17.73;13.90;;;6.20;99.90;;;;;;6305680;28;20229;-71
2021/04/17 20:11:31;;;;;;;15.97;13.50;;;6.10;99.90;;;;;;6303833;28;20328;-71
2021/04/17 20:14:34;;;;;;;16.40;13.87;;;6.10;99.90;;;;;;6304072;28;20270;-71
2021/04/17 20:17:36;;;;;;;18.77;13.10;;;6.10;99.90;;;;;;6302905;28;20240;-71
2021/04/17 20:20:41;;;;;;;14.33;11.70;;;6.10;99.90;;;;;;6305320;28;20302;-71
2021/04/17 20:23:43;;;;;;;15.73;12.93;;;6.10;99.90;;;;;;6303452;28;20508;-71
2021/04/17 20:26:46;;;;;;;14.20;11.97;;;6.10;99.90;;;;;;6302065;28;20244;-71
2021/04/17 20:29:48;;;;;;;17.10;12.40;;;6.10;99.90;;;;;;6303575;28;20233;-71
2021/04/17 20:32:51;;;;;;;15.93;12.00;;;6.10;99.90;;;;;;6276975;28;20248;-71
2021/04/17 20:40:46;;;;;;;16.73;13.07;;;6.00;99.90;;;;;;6290435;28;20261;-71
2021/04/17 20:43:48;;;;;;;16.50;14.03;;;5.90;99.90;;;;;;6277947;28;20234;-71
2021/04/17 20:46:51;;;;;;;16.47;13.80;;;5.90;99.90;;;;;;6279747;28;20731;-71
2021/04/17 20:49:54;;;;;;;16.43;12.93;;;5.80;99.90;;;;;;6285221;28;20702;-71
2021/04/17 20:52:56;;;;;;;17.40;13.73;;;5.80;99.90;;;;;;6282631;28;20229;-71
2021/04/17 20:55:58;;;;;;;18.17;13.47;;;5.80;99.90;;;;;;6278470;28;20261;-72
2021/04/17 20:59:02;;;;;;;17.73;13.83;;;5.80;99.90;;;;;;6277357;28;20241;-71
2021/04/17 21:02:04;;;;;;;18.93;13.93;;;5.80;99.90;;;;;;6293637;28;20244;-71
2021/04/17 21:05:07;;;;;;;17.33;13.37;;;5.80;99.90;;;;;;6293430;28;20248;-71
2021/04/17 21:08:11;;;;;;;17.30;13.43;;;5.70;99.90;;;;;;6283643;28;20222;-71
2021/04/17 21:11:15;;;;;;;16.63;12.93;;;5.70;99.90;;;;;;6300572;28;20316;-71
2021/04/17 21:14:17;;;;;;;15.50;11.77;;;5.70;99.90;;;;;;6302227;28;20230;-71
2021/04/17 21:17:19;;;;;;;15.37;12.03;;;5.70;99.90;;;;;;6283978;28;20367;-71
2021/04/17 21:20:21;;;;;;;18.07;14.23;;;5.70;99.90;;;;;;6301464;28;20253;-71
2021/04/17 21:23:23;;;;;;;17.33;13.00;;;5.80;99.90;;;;;;6301459;28;20245;-71
2021/04/17 21:26:26;;;;;;;13.67;11.13;;;5.80;99.90;;;;;;6303421;28;20314;-71
2021/04/17 21:29:29;;;;;;;14.20;11.53;;;5.80;99.90;;;;;;6301683;28;20239;-71
2021/04/17 21:32:32;;;;;;;18.10;13.70;;;5.80;99.90;;;;;;6300348;28;20235;-71
2021/04/17 21:35:35;;;;;;;14.47;11.50;;;5.80;99.90;;;;;;6302614;28;20234;-71
2021/04/17 21:38:37;;;;;;;17.30;12.80;;;5.70;99.90;;;;;;6301723;28;20226;-71
2021/04/17 21:41:39;;;;;;;16.73;13.43;;;5.70;99.90;;;;;;6302919;28;20678;-71
2021/04/17 21:44:41;;;;;;;16.70;13.93;;;5.60;99.90;;;;;;6302337;28;20238;-71
2021/04/17 21:47:43;;;;;;;17.27;13.63;;;5.60;99.90;;;;;;6303625;28;20244;-71
2021/04/17 21:50:45;;;;;;;15.97;12.47;;;5.60;99.90;;;;;;6302182;28;20243;-71
2021/04/17 21:53:47;;;;;;;15.77;12.73;;;5.50;99.90;;;;;;6301989;28;20231;-71
2021/04/17 21:56:49;;;;;;;16.13;12.67;;;5.50;99.90;;;;;;6314983;28;20251;-71
2021/04/17 21:59:51;;;;;;;13.30;10.90;;;5.50;99.90;;;;;;6326200;28;20243;-71
2021/04/17 22:02:53;;;;;;;15.77;12.13;;;5.50;99.90;;;;;;6326909;28;20247;-71
2021/04/17 22:05:55;;;;;;;16.27;11.73;;;5.50;99.90;;;;;;6304594;28;20244;-71
2021/04/17 22:08:57;;;;;;;14.77;11.63;;;5.50;99.90;;;;;;6299076;28;20244;-71
2021/04/17 22:11:59;;;;;;;16.30;12.70;;;5.50;99.90;;;;;;6301835;28;20770;-71
2021/04/17 22:15:00;;;;;;;17.17;13.00;;;5.50;99.90;;;;;;6301677;28;20728;-71
2021/04/17 22:18:03;;;;;;;18.40;14.70;;;5.50;99.90;;;;;;6301183;28;20293;-71
2021/04/17 22:21:06;;;;;;;18.37;13.80;;;5.50;99.90;;;;;;6300100;28;20288;-71
2021/04/17 22:24:08;;;;;;;18.20;14.00;;;5.40;99.90;;;;;;6300575;28;20217;-71
2021/04/17 22:27:10;;;;;;;19.03;14.43;;;5.40;99.90;;;;;;6300398;28;20274;-71
2021/04/17 22:30:13;;;;;;;17.30;13.63;;;5.40;99.90;;;;;;6282183;28;20219;-71
2021/04/17 22:33:16;;;;;;;16.90;13.20;;;5.30;99.90;;;;;;6301288;28;20222;-71
2021/04/17 22:36:19;;;;;;;18.00;13.87;;;5.30;99.90;;;;;;6299827;28;20434;-71
2021/04/17 22:39:21;;;;;;;18.23;14.40;;;5.30;99.90;;;;;;6277040;28;20644;-71
2021/04/17 22:42:23;;;;;;;20.37;15.30;;;5.30;99.90;;;;;;6276896;28;20301;-71
2021/04/17 22:45:25;;;;;;;22.40;16.57;;;5.30;99.90;;;;;;6275837;28;20740;-71
2021/04/17 22:48:27;;;;;;;18.97;14.80;;;5.30;99.90;;;;;;6274625;28;20237;-71
2021/04/17 22:51:28;;;;;;;20.47;14.97;;;5.20;99.90;;;;;;6275232;28;20724;-71
2021/04/17 22:54:30;;;;;;;21.00;14.73;;;5.20;99.90;;;;;;6274069;28;20235;-71
2021/04/17 22:57:34;;;;;;;20.57;14.20;;;5.20;99.90;;;;;;6275224;28;20296;-71
2021/04/17 23:00:36;;;;;;;21.83;15.73;;;5.20;99.90;;;;;;6305664;28;20235;-71
2021/04/17 23:03:38;;;;;;;24.50;17.90;;;5.20;99.90;;;;;;6321656;28;20283;-71
2021/04/17 23:06:41;;;;;;;21.03;15.77;;;5.20;99.90;;;;;;6301651;28;20311;-71
2021/04/17 23:09:43;;;;;;;21.70;16.57;;;5.10;99.90;;;;;;6297759;28;20704;-71
2021/04/17 23:12:46;;;;;;;22.00;16.47;;;5.10;99.90;;;;;;6299390;28;20280;-71
2021/04/17 23:15:48;;;;;;;23.37;17.87;;;5.10;99.90;;;;;;6298433;28;20269;-71
2021/04/17 23:18:50;;;;;;;25.03;17.97;;;5.10;99.90;;;;;;6298666;28;20248;-71
2021/04/17 23:21:52;;;;;;;22.37;16.43;;;5.00;99.90;;;;;;6283050;28;20238;-71
2021/04/17 23:24:53;;;;;;;22.80;16.10;;;5.00;99.90;;;;;;6299918;28;20323;-71
2021/04/17 23:27:55;;;;;;;22.67;14.60;;;5.00;99.90;;;;;;6300270;28;20263;-71
2021/04/17 23:30:57;;;;;;;20.37;14.83;;;5.10;99.90;;;;;;6301873;28;20289;-71
2021/04/17 23:34:00;;;;;;;21.47;15.60;;;5.10;99.90;;;;;;6299089;28;20232;-71
2021/04/17 23:37:02;;;;;;;23.37;15.97;;;5.10;99.90;;;;;;6280923;28;20290;-71
2021/04/17 23:40:05;;;;;;;22.03;16.50;;;5.10;99.90;;;;;;6281922;28;20248;-71
2021/04/17 23:43:07;;;;;;;22.77;17.20;;;5.10;99.90;;;;;;6299896;28;20360;-71
2021/04/17 23:46:09;;;;;;;21.90;16.67;;;5.10;99.90;;;;;;6302156;28;20235;-71
2021/04/17 23:49:12;;;;;;;23.60;17.20;;;5.00;99.90;;;;;;6306145;28;20229;-71
2021/04/17 23:52:14;;;;;;;22.43;16.37;;;5.00;99.90;;;;;;6309148;28;20243;-71
2021/04/17 23:55:17;;;;;;;25.83;16.47;;;4.90;99.90;;;;;;6329763;28;20256;-71
2021/04/17 23:58:18;;;;;;;23.30;15.73;;;4.90;99.90;;;;;;6327408;27;20307;-71
